Main page
METAR-TAF:

METAR-TAF

Airports :

Schwäbisch Hall, Germany

latitude: 49-07-06N, longitude: 9-47-02E, elevation: 398 m

Current weather observation

The report was made 35 minutes ago, at 16:50 UTC
Wind 13 kt from the East
Temperature 20°C
Humidity 30%
Pressure 1004 hPa
Visibility 10 km or more
no clouds below 1500 m and no cumulonimbus

METAR: EDTY 221650Z 09013KT CAVOK 20/02 Q1004

Time: 19:25 (17:25 UTC)

Forecast

The report was made 3 hours and 25 minutes ago, at 14:00 UTC
Forecast valid from 22 at 15 UTC to 22 at 24 UTC
Wind 13 kt from the East
Visibility 10 km or more
no clouds below 1500 m and no cumulonimbus
Becoming
from 22 at 17 UTC to 22 at 19 UTC
Wind 8 kt from the East/Northeast

TAF: EDTY 221400Z 2215/2224 08013KT CAVOK BECMG 2217/2219 07008KT

Weather observations and forecasts of more than 4000 airports (METAR and TAF reports).

The available stations are represented by yellow and red dots on the map.

Hover mouse over dot to see the name of the station.

Then click to see weather observations and forecasts.

To change the map : click on the green buttons with a black cross to zoom in, on the green button with a dash to zoom out, or on the green arrows for adjacent maps.


METAR-TAF: